^^
Saratoga-Weather Station Historical Data
Daily Summary for September 29, 2020 Units:  English    Metric   Both
Daily Weekly Monthly Yearly Custom
  High: Low: Average:
Temperature: 40.3 °F 34.5 °F 37.2 °F
Dew Point: 37.6 °F 33.4 °F 35.8 °F
Humidity: 97% 90% 94%
Wind Speed: 10.1mph 0mph 1.7mph
Wind Gust: 12mph - -
Wind- - West
Pressure: 29.4 in 28.9 in -
Precipitation: 0.19 in    
Historical Graphs
 
 
Tabular Data for September 29, 2020
Time Temperature Dew Point Pressure Wind Wind Speed Wind Gust Humidity Rainfall Rate (Hourly) solar
00:04 34.5 °F 33.4 °F 28.9 in Calm   2 mph 96% 0.02 in 0 W/m2
00:09 34.5 °F 33.4 °F 28.9 in Calm     96% 0.02 in 0 W/m2
00:14 34.7 °F 34 °F 28.9 in Calm   1 mph 97% 0.02 in 0 W/m2
00:19 34.9 °F 34.2 °F 28.9 in Calm     97% 0.02 in 0 W/m2
00:24 34.9 °F 34.2 °F 28.9 in Calm     97% 0.02 in 0 W/m2
00:29 34.9 °F 34.2 °F 28.9 in Calm     97% 0.02 in 0 W/m2
00:34 34.9 °F 34.2 °F 28.9 in Calm     97% 0.01 in 0 W/m2
00:39 35.1 °F 34.3 °F 28.9 in Calm   2 mph 97% 0.01 in 0 W/m2
00:44 35.2 °F 34.5 °F 28.9 in Calm     97% 0.01 in 0 W/m2
00:49 35.4 °F 34.7 °F 28.9 in Calm   2 mph 97% 0.01 in 0 W/m2
00:54 35.4 °F 34.7 °F 28.9 in Calm   1 mph 97% 0.02 in 0 W/m2
00:59 36 °F 35.2 °F 28.9 in NW 2 mph 4 mph 97% 0.02 in 0 W/m2
01:04 36.1 °F 35.4 °F 28.9 in WNW 6.9 mph 7 mph 97% 0.02 in 0 W/m2
01:09 36.1 °F 35.4 °F 28.9 in NNW 0.9 mph 3 mph 97% 0.02 in 0 W/m2
01:14 36.1 °F 35.4 °F 28.9 in North 7 mph 7 mph 97% 0.01 in 0 W/m2
01:19 36.1 °F 35.4 °F 28.9 in WNW 2 mph 4 mph 97% 0.02 in 0 W/m2
01:24 36.1 °F 35.4 °F 28.9 in NNE 0.9 mph 1 mph 97% 0.02 in 0 W/m2
01:29 36.1 °F 35.4 °F 28.9 in NE 2 mph 4 mph 97% 0.02 in 0 W/m2
01:34 36.1 °F 35.1 °F 28.9 in Calm   2 mph 96% 0.02 in 0 W/m2
01:39 36.1 °F 35.1 °F 28.9 in Calm   2 mph 96% 0.02 in 0 W/m2
01:44 36.1 °F 35.1 °F 28.9 in NW 0.9 mph 8 mph 96% 0.02 in 0 W/m2
01:49 36.1 °F 35.1 °F 28.9 in WNW 4.9 mph 5 mph 96% 0.02 in 0 W/m2
01:54 36 °F 34.9 °F 28.9 in NW 0.9 mph 6 mph 96% 0.01 in 0 W/m2
01:59 36 °F 34.9 °F 28.9 in WSW 2 mph 4 mph 96% 0.01 in 0 W/m2
02:04 36 °F 34.7 °F 28.9 in WSW 2 mph 4 mph 95% 0.01 in 0 W/m2
02:09 36 °F 34.7 °F 28.9 in NW 2.9 mph 4 mph 95% 0.01 in 0 W/m2
02:14 36 °F 34.7 °F 28.9 in WNW 2 mph 4 mph 95% 0.01 in 0 W/m2
02:19 35.8 °F 34.5 °F 28.9 in Calm   3 mph 95% 0 in 0 W/m2
02:24 35.8 °F 34.5 °F 28.9 in WSW 0.9 mph 2 mph 95% 0 in 0 W/m2
02:29 35.8 °F 34.5 °F 28.9 in Calm   1 mph 95% 0 in 0 W/m2
02:34 35.8 °F 34.5 °F 28.9 in West 0.9 mph 4 mph 95% 0 in 0 W/m2
02:39 35.8 °F 34.5 °F 28.9 in Calm   3 mph 95% 0.01 in 0 W/m2
02:44 35.6 °F 34.3 °F 28.9 in West 2.9 mph 7 mph 95% 0.01 in 0 W/m2
02:49 35.6 °F 34.3 °F 28.9 in WNW 4.9 mph 7 mph 95% 0.01 in 0 W/m2
02:54 35.6 °F 34.3 °F 28.9 in WNW 0.9 mph 3 mph 95% 0.01 in 0 W/m2
02:59 35.4 °F 34.2 °F 28.9 in West 4 mph 7 mph 95% 0.01 in 0 W/m2
03:04 35.4 °F 34.2 °F 28.9 in WNW 0.9 mph 9 mph 95% 0.01 in 0 W/m2
03:09 35.4 °F 34.2 °F 28.9 in NW 4 mph 7 mph 95% 0.01 in 0 W/m2
03:14 35.4 °F 34.2 °F 28.9 in SW 2 mph 9 mph 95% 0.01 in 0 W/m2
03:19 35.4 °F 34.2 °F 28.9 in WNW 2 mph 9 mph 95% 0.01 in 0 W/m2
03:24 35.4 °F 34.2 °F 28.9 in NW 2.9 mph 4 mph 95% 0.01 in 0 W/m2
03:29 35.4 °F 34.2 °F 28.9 in West 0.9 mph 8 mph 95% 0.01 in 0 W/m2
03:34 35.6 °F 34.3 °F 28.9 in West 6 mph 9 mph 95% 0.01 in 0 W/m2
03:39 35.6 °F 34.3 °F 29 in NW 6.9 mph 8 mph 95% 0 in 0 W/m2
03:44 35.6 °F 34.3 °F 29 in NW 2.9 mph 9 mph 95% 0 in 0 W/m2
03:49 35.6 °F 34.3 °F 29 in WNW 0.9 mph 7 mph 95% 0 in 0 W/m2
03:54 35.8 °F 34.5 °F 29 in West 2 mph 7 mph 95% 0 in 0 W/m2
03:59 35.6 °F 34.3 °F 29 in SW 0.9 mph 8 mph 95% 0 in 0 W/m2
04:04 35.6 °F 34.3 °F 29 in West 6 mph 9 mph 95% 0 in 0 W/m2
04:09 35.6 °F 34.3 °F 29 in West 0.9 mph 7 mph 95% 0 in 0 W/m2
04:14 35.8 °F 34.5 °F 29 in West 2 mph 3 mph 95% 0 in 0 W/m2
04:19 35.8 °F 34.5 °F 29 in WNW 0.9 mph 6 mph 95% 0 in 0 W/m2
04:24 35.8 °F 34.5 °F 29 in NW 4 mph 5 mph 95% 0 in 0 W/m2
04:29 35.6 °F 34.3 °F 29 in WNW 0.9 mph 2 mph 95% 0 in 0 W/m2
04:34 35.8 °F 34.5 °F 29 in West 0.9 mph 3 mph 95% 0 in 0 W/m2
04:39 35.8 °F 34.5 °F 29 in WNW 2 mph 4 mph 95% 0 in 0 W/m2
04:44 35.8 °F 34.5 °F 29 in West 2.9 mph 8 mph 95% 0.01 in 0 W/m2
04:49 35.8 °F 34.5 °F 29 in NW 2.9 mph 4 mph 95% 0.01 in 0 W/m2
04:54 35.8 °F 34.5 °F 29 in NNW 0.9 mph 5 mph 95% 0.01 in 0 W/m2
04:59 35.8 °F 34.5 °F 29 in WSW 10.1 mph 10 mph 95% 0.01 in 0 W/m2
05:04 36 °F 34.7 °F 29 in NW 2 mph 6 mph 95% 0.01 in 0 W/m2
05:09 36 °F 34.7 °F 29 in West 0.9 mph 8 mph 95% 0.01 in 0 W/m2
05:14 36 °F 34.7 °F 29 in West 2.9 mph 9 mph 95% 0.01 in 0 W/m2
05:19 36.1 °F 34.9 °F 29 in West 6.9 mph 10 mph 95% 0.01 in 0 W/m2
05:24 36.1 °F 34.9 °F 29 in WSW 2.9 mph 6 mph 95% 0.01 in 0 W/m2
05:29 36.1 °F 34.9 °F 29 in WNW 0.9 mph 4 mph 95% 0.01 in 0 W/m2
05:34 36.1 °F 34.9 °F 29 in WNW 6.9 mph 9 mph 95% 0.01 in 0 W/m2
05:39 36.1 °F 34.9 °F 29 in West 2.9 mph 8 mph 95% 0.01 in 0 W/m2
05:44 36.1 °F 34.9 °F 29 in West 2.9 mph 8 mph 95% 0 in 0 W/m2
05:49 36 °F 34.7 °F 29 in WSW 2.9 mph 7 mph 95% 0 in 0 W/m2
05:54 36 °F 34.7 °F 29 in WNW 0.9 mph 6 mph 95% 0 in 0 W/m2
05:59 36 °F 34.7 °F 29 in West 4 mph 7 mph 95% 0 in 0 W/m2
06:04 36 °F 34.7 °F 29 in WSW 2.9 mph 3 mph 95% 0 in 0 W/m2
06:09 36 °F 34.7 °F 29.1 in West 2 mph 7 mph 95% 0 in 0 W/m2
06:14 35.8 °F 34.5 °F 29.1 in WSW 2 mph 8 mph 95% 0.01 in 0 W/m2
06:19 35.8 °F 34.5 °F 29.1 in West 2.9 mph 7 mph 95% 0.01 in 0 W/m2
06:24 35.8 °F 34.5 °F 29.1 in WNW 2 mph 6 mph 95% 0.01 in 0 W/m2
06:29 35.8 °F 34.5 °F 29.1 in WNW 2.9 mph 6 mph 95% 0.02 in 0 W/m2
06:34 35.8 °F 34.5 °F 29.1 in WNW 2.9 mph 4 mph 95% 0.02 in 0 W/m2
06:39 35.8 °F 34.5 °F 29.1 in WNW 2 mph 4 mph 95% 0.02 in 0 W/m2
06:44 36 °F 34.7 °F 29.1 in WNW 6 mph 6 mph 95% 0.02 in 0 W/m2
06:49 36 °F 34.7 °F 29.1 in WNW 4.9 mph 8 mph 95% 0.02 in 0 W/m2
06:54 36 °F 34.7 °F 29.1 in West 6 mph 7 mph 95% 0.02 in 0 W/m2
06:59 36.1 °F 34.9 °F 29.1 in WNW 8.1 mph 8 mph 95% 0.02 in 0 W/m2
07:04 36.1 °F 34.9 °F 29.1 in NNW 0.9 mph 6 mph 95% 0.02 in 0 W/m2
07:09 36.3 °F 35.1 °F 29.1 in WNW 6.9 mph 9 mph 95% 0.02 in 0 W/m2
07:14 36.5 °F 35.2 °F 29.1 in WNW 4 mph 4 mph 95% 0.02 in 0 W/m2
07:19 36.5 °F 35.2 °F 29.1 in WNW 4 mph 8 mph 95% 0.02 in 0 W/m2
07:24 36.7 °F 35.4 °F 29.1 in WSW 2.9 mph 4 mph 95% 0.02 in 0 W/m2
07:29 36.7 °F 35.4 °F 29.1 in NW 10.1 mph 10 mph 95% 0.01 in 0 W/m2
07:34 36.9 °F 35.6 °F 29.1 in NW 4 mph 8 mph 95% 0.01 in 0 W/m2
07:39 36.9 °F 35.6 °F 29.1 in West 6 mph 10 mph 95% 0.01 in 0 W/m2
07:44 37 °F 35.4 °F 29.1 in West 2.9 mph 9 mph 94% 0.01 in 0 W/m2
07:49 37 °F 35.4 °F 29.1 in West 2 mph 8 mph 94% 0 in 0 W/m2
07:54 37 °F 35.8 °F 29.1 in West 6 mph 6 mph 95% 0 in 0 W/m2
07:59 37 °F 35.8 °F 29.1 in WNW 4 mph 6 mph 95% 0 in 0 W/m2
08:04 37 °F 35.4 °F 29.2 in West 8.1 mph 12 mph 94% 0 in 0 W/m2
08:09 37 °F 35.8 °F 29.2 in NW 2 mph 9 mph 95% 0 in 0 W/m2
08:14 37.2 °F 36 °F 29.2 in West 2 mph 12 mph 95% 0 in 0 W/m2
08:19 37.2 °F 36 °F 29.2 in West 4 mph 4 mph 95% 0 in 0 W/m2
08:24 37 °F 35.4 °F 29.2 in WNW 2 mph 6 mph 94% 0 in 0 W/m2
08:29 37 °F 35.4 °F 29.2 in WSW 4 mph 7 mph 94% 0 in 0 W/m2
08:34 37 °F 35.4 °F 29.2 in WNW 4 mph 9 mph 94% 0 in 0 W/m2
08:39 37 °F 35.4 °F 29.2 in West 2.9 mph 7 mph 94% 0 in 0 W/m2
08:44 37 °F 35.8 °F 29.2 in NW 2.9 mph 9 mph 95% 0 in 0 W/m2
08:49 37 °F 35.4 °F 29.2 in NW 0.9 mph 7 mph 94% 0 in 0 W/m2
08:54 37.2 °F 35.6 °F 29.2 in Calm   4 mph 94% 0 in 0 W/m2
09:00 37.2 °F 35.6 °F 29.2 in Calm   2 mph 94% 0 in 0 W/m2
09:05 37.2 °F 35.6 °F 29.2 in SW 0.9 mph 8 mph 94% 0 in 0 W/m2
09:10 37.2 °F 35.6 °F 29.2 in Calm   2 mph 94% 0 in 7 W/m2
09:15 37.2 °F 35.6 °F 29.2 in Calm   8 mph 94% 0 in 14 W/m2
09:20 37.2 °F 35.6 °F 29.2 in West 2 mph 7 mph 94% 0 in 12 W/m2
09:25 37.2 °F 35.6 °F 29.2 in SW 2 mph 3 mph 94% 0 in 12 W/m2
09:30 37.2 °F 35.6 °F 29.2 in SW 0.9 mph 7 mph 94% 0 in 14 W/m2
09:35 37 °F 35.4 °F 29.2 in West 6 mph 10 mph 94% 0 in 19 W/m2
09:40 37 °F 35.4 °F 29.2 in NNW 2 mph 3 mph 94% 0 in 25 W/m2
09:45 37 °F 35.4 °F 29.2 in Calm   8 mph 94% 0 in 26 W/m2
09:50 37 °F 35.8 °F 29.2 in Calm   5 mph 95% 0 in 30 W/m2
09:55 37.2 °F 36 °F 29.2 in Calm   4 mph 95% 0 in 28 W/m2
10:00 37.2 °F 36 °F 29.2 in Calm   2 mph 95% 0 in 32 W/m2
10:05 37.2 °F 35.6 °F 29.2 in NW 2 mph 2 mph 94% 0 in 40 W/m2
10:10 37.4 °F 35.8 °F 29.2 in WNW 2.9 mph 9 mph 94% 0 in 54 W/m2
10:15 37.6 °F 36 °F 29.2 in Calm   3 mph 94% 0 in 67 W/m2
10:20 37.6 °F 36 °F 29.2 in WSW 0.9 mph 9 mph 94% 0 in 46 W/m2
10:25 37.8 °F 36.1 °F 29.2 in WNW 0.9 mph 3 mph 94% 0 in 26 W/m2
10:30 37.8 °F 36.1 °F 29.2 in North 2 mph 7 mph 94% 0 in 39 W/m2
10:35 37.8 °F 36.1 °F 29.2 in WNW 6.9 mph 7 mph 94% 0 in 54 W/m2
10:40 37.8 °F 36.1 °F 29.2 in NW 2.9 mph 8 mph 94% 0 in 127 W/m2
10:45 37.9 °F 36.3 °F 29.2 in West 2.9 mph 10 mph 94% 0 in 107 W/m2
10:50 37.9 °F 36.3 °F 29.2 in Calm   4 mph 94% 0 in 91 W/m2
10:55 38.1 °F 36.3 °F 29.2 in WNW 2.9 mph 10 mph 93% 0 in 67 W/m2
11:00 38.1 °F 36.3 °F 29.2 in South 4 mph 4 mph 93% 0 in 111 W/m2
11:05 38.3 °F 36.5 °F 29.3 in SSE 2 mph 2 mph 93% 0 in 148 W/m2
11:10 38.5 °F 36.7 °F 29.3 in SSE 2.9 mph 4 mph 93% 0 in 107 W/m2
11:15 38.7 °F 36.9 °F 29.3 in West 0.9 mph 4 mph 93% 0 in 81 W/m2
11:20 38.7 °F 36.5 °F 29.3 in WNW 4 mph 4 mph 92% 0 in 90 W/m2
11:25 38.7 °F 36.5 °F 29.3 in SE 2 mph 5 mph 92% 0 in 107 W/m2
11:30 38.7 °F 36.5 °F 29.3 in ENE 2.9 mph 3 mph 92% 0 in 127 W/m2
11:35 38.8 °F 36.7 °F 29.3 in WNW 0.9 mph 12 mph 92% 0 in 151 W/m2
11:40 38.8 °F 36.5 °F 29.3 in NW 4 mph 11 mph 91% 0 in 120 W/m2
11:45 38.8 °F 36.5 °F 29.3 in NNE 2.9 mph 12 mph 91% 0 in 130 W/m2
11:50 38.8 °F 36.5 °F 29.3 in Calm   6 mph 91% 0 in 84 W/m2
11:55 38.8 °F 36.5 °F 29.3 in NW 4.9 mph 8 mph 91% 0 in 67 W/m2
12:00 38.7 °F 36 °F 29.3 in NNW 2.9 mph 3 mph 90% 0 in 113 W/m2
12:05 38.7 °F 36 °F 29.3 in WSW 2.9 mph 11 mph 90% 0 in 118 W/m2
12:10 38.7 °F 36 °F 29.3 in SW 2.9 mph 3 mph 90% 0 in 120 W/m2
12:15 38.7 °F 36.3 °F 29.3 in NW 4.9 mph 11 mph 91% 0 in 77 W/m2
12:20 38.7 °F 36.3 °F 29.3 in West 2 mph 7 mph 91% 0 in 56 W/m2
12:25 38.7 °F 36.3 °F 29.3 in West 0.9 mph 6 mph 91% 0 in 79 W/m2
12:30 38.7 °F 36.3 °F 29.3 in ESE 0.9 mph 4 mph 91% 0 in 69 W/m2
12:35 38.8 °F 36.5 °F 29.3 in SW 9 mph 9 mph 91% 0 in 60 W/m2
12:40 38.8 °F 36.5 °F 29.3 in Calm   5 mph 91% 0 in 54 W/m2
12:45 38.8 °F 36.5 °F 29.3 in NNW 2.9 mph 7 mph 91% 0 in 67 W/m2
12:50 39 °F 36.7 °F 29.3 in West 4 mph 4 mph 91% 0 in 98 W/m2
12:55 39 °F 36.9 °F 29.3 in NW 2 mph 2 mph 92% 0 in 116 W/m2
13:00 39.2 °F 37 °F 29.3 in WNW 2.9 mph 10 mph 92% 0 in 70 W/m2
13:05 39.4 °F 37.2 °F 29.3 in West 2 mph 4 mph 92% 0 in 72 W/m2
13:10 39.4 °F 37.2 °F 29.3 in WNW 2 mph 10 mph 92% 0 in 60 W/m2
13:15 39.4 °F 37.2 °F 29.3 in NW 2 mph 4 mph 92% 0 in 33 W/m2
13:20 39.6 °F 37.4 °F 29.3 in WNW 2 mph 4 mph 92% 0 in 40 W/m2
13:25 39.6 °F 37.2 °F 29.3 in NW 2 mph 6 mph 91% 0 in 56 W/m2
13:30 39.6 °F 37.2 °F 29.3 in NW 0.9 mph 4 mph 91% 0 in 33 W/m2
13:35 39.6 °F 37.2 °F 29.3 in North 0.9 mph 5 mph 91% 0 in 39 W/m2
13:40 39.7 °F 37.4 °F 29.3 in East 2 mph 3 mph 91% 0 in 46 W/m2
13:45 39.7 °F 37.4 °F 29.3 in ESE 0.9 mph 7 mph 91% 0 in 49 W/m2
13:50 39.9 °F 37.6 °F 29.3 in ENE 2 mph 3 mph 91% 0 in 86 W/m2
13:55 39.9 °F 37.6 °F 29.3 in NW 2 mph 6 mph 91% 0 in 72 W/m2
14:05 40.3 °F 37.6 °F 29.3 in NW 0.9 mph 2 mph 90% 0 in 65 W/m2
14:11 40.3 °F 37.6 °F 29.3 in SW 2.9 mph 6 mph 90% 0 in 46 W/m2
14:16 40.3 °F 37.6 °F 29.3 in NNW 2 mph 4 mph 90% 0 in 49 W/m2
14:21 40.3 °F 37.6 °F 29.3 in Calm   6 mph 90% 0 in 39 W/m2
14:26 40.3 °F 37.6 °F 29.3 in WNW 0.9 mph 6 mph 90% 0 in 49 W/m2
14:31 40.3 °F 37.6 °F 29.3 in WSW 0.9 mph 3 mph 90% 0 in 32 W/m2
14:36 40.3 °F 37.6 °F 29.3 in WNW 0.9 mph 4 mph 90% 0 in 54 W/m2
14:41 40.1 °F 37.4 °F 29.3 in West 6 mph 9 mph 90% 0 in 74 W/m2
14:46 39.9 °F 37.2 °F 29.3 in WNW 4.9 mph 6 mph 90% 0 in 74 W/m2
14:51 39.9 °F 37.2 °F 29.3 in Calm   9 mph 90% 0 in 79 W/m2
14:56 39.9 °F 37.2 °F 29.3 in West 2 mph 3 mph 90% 0 in 74 W/m2
15:01 39.9 °F 37.2 °F 29.3 in West 0.9 mph 4 mph 90% 0 in 69 W/m2
15:06 39.7 °F 37 °F 29.3 in NNW 0.9 mph 1 mph 90% 0 in 63 W/m2
15:11 39.7 °F 37 °F 29.3 in ENE 0.9 mph 3 mph 90% 0 in 56 W/m2
15:16 39.7 °F 37 °F 29.3 in Calm   4 mph 90% 0 in 39 W/m2
15:21 39.7 °F 37 °F 29.3 in North 0.9 mph 2 mph 90% 0 in 32 W/m2
15:26 39.7 °F 37 °F 29.3 in NW 0.9 mph 3 mph 90% 0 in 33 W/m2
15:31 39.7 °F 37 °F 29.3 in NW 0.9 mph 1 mph 90% 0 in 42 W/m2
15:36 39.7 °F 37 °F 29.3 in West 0.9 mph 2 mph 90% 0 in 26 W/m2
15:41 39.7 °F 37 °F 29.3 in WNW 0.9 mph 2 mph 90% 0 in 26 W/m2
15:46 39.7 °F 37 °F 29.3 in Calm   2 mph 90% 0 in 26 W/m2
15:51 39.7 °F 37 °F 29.3 in Calm   2 mph 90% 0 in 19 W/m2
15:56 39.7 °F 37 °F 29.3 in North 0.9 mph 2 mph 90% 0 in 21 W/m2
16:01 39.7 °F 37 °F 29.3 in NW 2 mph 2 mph 90% 0 in 21 W/m2
16:06 39.7 °F 37 °F 29.3 in ENE 0.9 mph 4 mph 90% 0 in 18 W/m2
16:11 39.7 °F 37 °F 29.3 in North 2 mph 2 mph 90% 0 in 12 W/m2
16:16 39.7 °F 37 °F 29.3 in NW 0.9 mph 4 mph 90% 0 in 11 W/m2
16:21 39.6 °F 36.9 °F 29.3 in NE 0.9 mph 3 mph 90% 0 in 7 W/m2
16:26 39.6 °F 36.9 °F 29.3 in Calm   3 mph 90% 0 in 5 W/m2
16:31 39.6 °F 36.9 °F 29.3 in Calm   2 mph 90% 0 in 0 W/m2
16:36 39.6 °F 36.9 °F 29.3 in Calm   1 mph 90% 0 in 0 W/m2
16:41 39.6 °F 36.9 °F 29.3 in Calm   3 mph 90% 0 in 0 W/m2
16:46 39.6 °F 36.9 °F 29.3 in Calm   1 mph 90% 0 in 0 W/m2
16:51 39.4 °F 37 °F 29.3 in SW 0.9 mph 2 mph 91% 0 in 0 W/m2
16:56 39.4 °F 37 °F 29.3 in Calm   1 mph 91% 0.01 in 0 W/m2
17:02 39.4 °F 37 °F 29.3 in SW 2 mph 2 mph 91% 0.02 in 0 W/m2
17:07 39.2 °F 37 °F 29.3 in SW 0.9 mph 1 mph 92% 0.02 in 0 W/m2
17:12 39 °F 36.9 °F 29.4 in West 2 mph 3 mph 92% 0.02 in 0 W/m2
17:17 38.8 °F 36.7 °F 29.4 in NNW 0.9 mph 2 mph 92% 0.02 in 0 W/m2
17:22 38.7 °F 36.9 °F 29.4 in NW 0.9 mph 3 mph 93% 0.02 in 0 W/m2
17:27 38.5 °F 36.7 °F 29.4 in NW 2 mph 3 mph 93% 0.02 in 0 W/m2
17:32 38.1 °F 36.3 °F 29.4 in West 2.9 mph 9 mph 93% 0.04 in 0 W/m2
17:37 37.2 °F 35.1 °F 29.4 in West 0.9 mph 3 mph 92% 0.05 in 0 W/m2
17:42 36.9 °F 35.1 °F 29.4 in West 2.9 mph 8 mph 93% 0.06 in 0 W/m2
17:47 36.7 °F 34.9 °F 29.4 in West 0.9 mph 2 mph 93% 0.07 in 0 W/m2
17:52 36.7 °F 35.1 °F 29.4 in Calm   2 mph 94% 0.08 in 0 W/m2
17:57 36.5 °F 34.9 °F 29.4 in WSW 0.9 mph 2 mph 94% 0.07 in 0 W/m2
18:02 36.5 °F 34.9 °F 29.4 in Calm   1 mph 94% 0.06 in 0 W/m2
18:07 36.5 °F 34.9 °F 29.4 in Calm   1 mph 94% 0.06 in 0 W/m2
18:12 36.7 °F 35.1 °F 29.4 in Calm   1 mph 94% 0.06 in 0 W/m2
18:17 36.7 °F 35.1 °F 29.4 in Calm     94% 0.06 in 0 W/m2
18:22 36.7 °F 35.1 °F 29.4 in Calm   1 mph 94% 0.06 in 0 W/m2
18:27 36.7 °F 35.4 °F 29.4 in Calm   1 mph 95% 0.06 in 0 W/m2
18:32 36.7 °F 35.4 °F 29.4 in Calm     95% 0.04 in 0 W/m2
18:37 36.9 °F 35.6 °F 29.4 in Calm   1 mph 95% 0.02 in 0 W/m2
18:42 36.9 °F 35.6 °F 29.4 in South 0.9 mph 1 mph 95% 0.02 in 0 W/m2
18:47 36.9 °F 35.6 °F 29.4 in Calm     95% 0.01 in 0 W/m2
18:52 37 °F 35.8 °F 29.4 in Calm     95% 0 in 0 W/m2
18:57 37 °F 35.8 °F 29.4 in Calm     95% 0 in 0 W/m2
19:02 37 °F 35.8 °F 29.4 in Calm     95% 0 in 0 W/m2
19:07 37 °F 35.8 °F 29.4 in Calm     95% 0 in 0 W/m2
19:12 36.9 °F 35.6 °F 29.4 in Calm     95% 0 in 0 W/m2
19:17 36.9 °F 35.6 °F 29.4 in Calm     95% 0 in 0 W/m2
19:22 36.9 °F 35.6 °F 29.4 in Calm     95% 0 in 0 W/m2
19:27 36.9 °F 35.6 °F 29.4 in Calm     95% 0 in 0 W/m2
19:32 37 °F 35.8 °F 29.4 in Calm     95% 0 in 0 W/m2
19:37 37 °F 35.8 °F 29.4 in Calm     95% 0 in 0 W/m2
19:42 37 °F 36 °F 29.4 in Calm     96% 0 in 0 W/m2
19:47 37 °F 36 °F 29.4 in Calm     96% 0 in 0 W/m2
19:52 37 °F 36 °F 29.4 in Calm     96% 0 in 0 W/m2
19:57 37 °F 36 °F 29.4 in Calm     96% 0 in 0 W/m2
20:02 37 °F 36 °F 29.4 in Calm     96% 0 in 0 W/m2
20:07 37 °F 36 °F 29.4 in Calm     96% 0 in 0 W/m2
20:12 37 °F 36 °F 29.4 in Calm     96% 0 in 0 W/m2
20:17 37 °F 36 °F 29.4 in Calm     96% 0 in 0 W/m2
20:22 37 °F 36 °F 29.4 in Calm     96% 0 in 0 W/m2
20:27 37 °F 36 °F 29.4 in South 0.9 mph 1 mph 96% 0 in 0 W/m2
20:32 37 °F 36 °F 29.4 in Calm   2 mph 96% 0 in 0 W/m2
20:37 37 °F 36 °F 29.4 in Calm   1 mph 96% 0 in 0 W/m2
20:42 36.9 °F 35.8 °F 29.4 in NW 0.9 mph 2 mph 96% 0 in 0 W/m2
20:47 36.9 °F 35.8 °F 29.4 in Calm     96% 0 in 0 W/m2
20:52 36.9 °F 35.8 °F 29.4 in Calm   1 mph 96% 0 in 0 W/m2
20:57 36.9 °F 35.8 °F 29.4 in Calm     96% 0 in 0 W/m2
21:02 36.9 °F 35.8 °F 29.4 in Calm     96% 0 in 0 W/m2
21:07 36.9 °F 35.8 °F 29.4 in Calm     96% 0 in 0 W/m2
21:12 36.7 °F 35.6 °F 29.4 in Calm     96% 0 in 0 W/m2
21:17 36.7 °F 35.6 °F 29.4 in Calm   1 mph 96% 0 in 0 W/m2
21:22 36.7 °F 35.6 °F 29.4 in Calm     96% 0 in 0 W/m2
21:27 36.7 °F 35.6 °F 29.4 in Calm     96% 0 in 0 W/m2
21:32 36.7 °F 35.6 °F 29.4 in NW 0.9 mph 1 mph 96% 0 in 0 W/m2
21:37 36.7 °F 35.6 °F 29.4 in Calm     96% 0 in 0 W/m2
21:42 36.7 °F 35.6 °F 29.4 in Calm   1 mph 96% 0 in 0 W/m2
21:47 36.9 °F 35.8 °F 29.4 in Calm   1 mph 96% 0 in 0 W/m2
21:52 36.9 °F 35.8 °F 29.4 in NW 0.9 mph 1 mph 96% 0 in 0 W/m2
21:58 36.9 °F 36.1 °F 29.4 in Calm     97% 0 in 0 W/m2
22:03 37 °F 36.3 °F 29.4 in Calm   1 mph 97% 0 in 0 W/m2
22:08 37 °F 36.3 °F 29.4 in Calm     97% 0 in 0 W/m2
22:13 37 °F 36.3 °F 29.4 in Calm   1 mph 97% 0 in 0 W/m2
22:18 37 °F 36.3 °F 29.4 in NW 2 mph 2 mph 97% 0 in 0 W/m2
22:23 37 °F 36.3 °F 29.4 in Calm     97% 0 in 0 W/m2
22:28 37 °F 36.3 °F 29.4 in Calm   1 mph 97% 0 in 0 W/m2
22:33 37 °F 36.3 °F 29.4 in Calm     97% 0 in 0 W/m2
22:38 37 °F 36.3 °F 29.4 in Calm   1 mph 97% 0.01 in 0 W/m2
22:43 37 °F 36.3 °F 29.4 in Calm   1 mph 97% 0.01 in 0 W/m2
22:48 37.2 °F 36.5 °F 29.4 in Calm     97% 0.01 in 0 W/m2
22:53 37.2 °F 36.5 °F 29.4 in NW 2 mph 2 mph 97% 0.01 in 0 W/m2
22:58 37.2 °F 36.5 °F 29.4 in NNE 0.9 mph 1 mph 97% 0.01 in 0 W/m2
23:03 37.2 °F 36.5 °F 29.4 in NE 0.9 mph 2 mph 97% 0.02 in 0 W/m2
23:08 37.4 °F 36.7 °F 29.4 in Calm   2 mph 97% 0.02 in 0 W/m2
23:13 37.6 °F 36.9 °F 29.4 in Calm   1 mph 97% 0.02 in 0 W/m2
23:18 37.8 °F 37 °F 29.4 in NE 2 mph 3 mph 97% 0.02 in 0 W/m2
23:23 37.9 °F 37.2 °F 29.4 in Calm   2 mph 97% 0.02 in 0 W/m2
23:28 37.9 °F 37.2 °F 29.4 in Calm   2 mph 97% 0.02 in 0 W/m2
23:33 37.9 °F 37.2 °F 29.4 in Calm     97% 0.03 in 0 W/m2
23:38 38.1 °F 37.4 °F 29.4 in Calm   1 mph 97% 0.02 in 0 W/m2
23:43 38.1 °F 37.4 °F 29.4 in Calm   1 mph 97% 0.02 in 0 W/m2
23:48 38.1 °F 37.4 °F 29.4 in NE 0.9 mph 2 mph 97% 0.03 in 0 W/m2
23:53 38.1 °F 37.4 °F 29.4 in North 2.9 mph 3 mph 97% 0.03 in 0 W/m2
23:58 38.1 °F 37.4 °F 29.4 in Calm   2 mph 97% 0.04 in 0 W/m2
Juneau County Weather
Compliments of Weather Underground - 4 mb